<?xml version="1.0" encoding="UTF-8" standalone="no" ?><gpx xmlns="http://www.topografix.com/GPX/1/1" xmlns:gpxx="http://www.garmin.com/xmlschemas/GpxExtensions/v3" xmlns:gpxtrkx="http://www.garmin.com/xmlschemas/TrackStatsExtension/v1" xmlns:wptx1="http://www.garmin.com/xmlschemas/WaypointExtension/v1" xmlns:gpxtpx="http://www.garmin.com/xmlschemas/TrackPointExtension/v1" creator="Oregon 700" version="1.1" xmlns:xsi="http://www.w3.org/2001/XMLSchema-instance" xsi:schemaLocation="http://www.topografix.com/GPX/1/1 http://www.topografix.com/GPX/1/1/gpx.xsd http://www.garmin.com/xmlschemas/GpxExtensions/v3 http://www8.garmin.com/xmlschemas/GpxExtensionsv3.xsd http://www.garmin.com/xmlschemas/TrackStatsExtension/v1 http://www8.garmin.com/xmlschemas/TrackStatsExtension.xsd http://www.garmin.com/xmlschemas/WaypointExtension/v1 http://www8.garmin.com/xmlschemas/WaypointExtensionv1.xsd http://www.garmin.com/xmlschemas/TrackPointExtension/v1 http://www.garmin.com/xmlschemas/TrackPointExtensionv1.xsd"><metadata><link href="http://www.garmin.com"><text>Garmin International</text></link><time>2023-05-24T15:42:30Z</time></metadata><trk><name>Current Track: 24 MAY 2023 10:08</name><extensions><gpxx:TrackExtension><gpxx:DisplayColor>Cyan</gpxx:DisplayColor></gpxx:TrackExtension><gpxtrkx:TrackStatsExtension><gpxtrkx:Distance>4214.000</gpxtrkx:Distance><gpxtrkx:TimerTime>7090</gpxtrkx:TimerTime><gpxtrkx:TotalElapsedTime>23658</gpxtrkx:TotalElapsedTime><gpxtrkx:MovingTime>6020</gpxtrkx:MovingTime><gpxtrkx:StoppedTime>1070</gpxtrkx:StoppedTime><gpxtrkx:MovingSpeed>0.700</gpxtrkx:MovingSpeed><gpxtrkx:MaxSpeed>1.209</gpxtrkx:MaxSpeed><gpxtrkx:MaxElevation>0.000</gpxtrkx:MaxElevation><gpxtrkx:MinElevation>-77.748</gpxtrkx:MinElevation><gpxtrkx:Ascent>63.000</gpxtrkx:Ascent><gpxtrkx:Descent>61.304</gpxtrkx:Descent><gpxtrkx:AvgAscentRate>0.030</gpxtrkx:AvgAscentRate><gpxtrkx:MaxAscentRate>0.140</gpxtrkx:MaxAscentRate><gpxtrkx:AvgDescentRate>0.036</gpxtrkx:AvgDescentRate><gpxtrkx:MaxDescentRate>-0.084</gpxtrkx:MaxDescentRate><gpxtrkx:Calories>177</gpxtrkx:Calories></gpxtrkx:TrackStatsExtension></extensions><trkseg><trkpt lat="51.7586285155" lon="-1.8391978461"><ele>-64.52</ele><time>2023-05-24T09:08:13Z</time></trkpt><trkpt lat="51.7586453632" lon="-1.8392245844"><ele>-63.02</ele><time>2023-05-24T09:08:45Z</time></trkpt><trkpt lat="51.7586296052" lon="-1.8392034620"><ele>-62.83</ele><time>2023-05-24T09:09:07Z</time></trkpt><trkpt lat="51.7586480454" lon="-1.8391732033"><ele>-62.65</ele><time>2023-05-24T09:09:30Z</time></trkpt><trkpt lat="51.7587035336" lon="-1.8392512389"><ele>-63.13</ele><time>2023-05-24T09:09:52Z</time></trkpt><trkpt lat="51.7588196229" lon="-1.8393820804"><ele>-63.06</ele><time>2023-05-24T09:10:16Z</time></trkpt><trkpt lat="51.7589374725" lon="-1.8392509036"><ele>-63.06</ele><time>2023-05-24T09:10:39Z</time></trkpt><trkpt lat="51.7590367142" lon="-1.8390063196"><ele>-64.83</ele><time>2023-05-24T09:10:59Z</time></trkpt><trkpt lat="51.7591046914" lon="-1.8388772383"><ele>-65.44</ele><time>2023-05-24T09:11:15Z</time></trkpt><trkpt lat="51.7591737583" lon="-1.8386989553"><ele>-65.93</ele><time>2023-05-24T09:11:34Z</time></trkpt><trkpt lat="51.7593132332" lon="-1.8383848015"><ele>-68.14</ele><time>2023-05-24T09:12:05Z</time></trkpt><trkpt lat="51.7593852337" lon="-1.8382226955"><ele>-69.14</ele><time>2023-05-24T09:12:21Z</time></trkpt><trkpt lat="51.7594698071" lon="-1.8380948715"><ele>-69.60</ele><time>2023-05-24T09:12:42Z</time></trkpt><trkpt lat="51.7595702223" lon="-1.8379222881"><ele>-70.04</ele><time>2023-05-24T09:13:06Z</time></trkpt><trkpt lat="51.7597111221" lon="-1.8377215415"><ele>-71.94</ele><time>2023-05-24T09:13:29Z</time></trkpt><trkpt lat="51.7597690411" lon="-1.8374842498"><ele>-72.27</ele><time>2023-05-24T09:13:46Z</time></trkpt><trkpt lat="51.7598689534" lon="-1.8371839263"><ele>-73.74</ele><time>2023-05-24T09:14:12Z</time></trkpt><trkpt lat="51.7598744016" lon="-1.8371714372"><ele>-73.79</ele><time>2023-05-24T09:14:13Z</time></trkpt><trkpt lat="51.7599253636" lon="-1.8370531686"><ele>-74.42</ele><time>2023-05-24T09:14:28Z</time></trkpt><trkpt lat="51.7600105237" lon="-1.8369174656"><ele>-75.33</ele><time>2023-05-24T09:14:42Z</time></trkpt><trkpt lat="51.7600736395" lon="-1.8367562816"><ele>-76.15</ele><time>2023-05-24T09:15:01Z</time></trkpt><trkpt lat="51.7601165548" lon="-1.8365235999"><ele>-76.03</ele><time>2023-05-24T09:15:21Z</time></trkpt><trkpt lat="51.7601315584" lon="-1.8363371864"><ele>-76.25</ele><time>2023-05-24T09:15:40Z</time></trkpt><trkpt lat="51.7601716239" lon="-1.8362739868"><ele>-76.11</ele><time>2023-05-24T09:15:56Z</time></trkpt><trkpt lat="51.7601458915" lon="-1.8362163194"><ele>-76.52</ele><time>2023-05-24T09:16:20Z</time></trkpt><trkpt lat="51.7600867152" lon="-1.8361521978"><ele>-76.44</ele><time>2023-05-24T09:16:49Z</time></trkpt><trkpt lat="51.7599386070" lon="-1.8359398004"><ele>-76.44</ele><time>2023-05-24T09:17:18Z</time></trkpt><trkpt lat="51.7597495113" lon="-1.8356620241"><ele>-76.44</ele><time>2023-05-24T09:17:45Z</time></trkpt><trkpt lat="51.7596241180" lon="-1.8355876766"><ele>-76.44</ele><time>2023-05-24T09:18:08Z</time></trkpt><trkpt lat="51.7595254630" lon="-1.8355858326"><ele>-76.44</ele><time>2023-05-24T09:18:23Z</time></trkpt><trkpt lat="51.7593116406" lon="-1.8354661390"><ele>-76.44</ele><time>2023-05-24T09:18:45Z</time></trkpt><trkpt lat="51.7590550706" lon="-1.8353710882"><ele>-76.44</ele><time>2023-05-24T09:19:17Z</time></trkpt><trkpt lat="51.7589306831" lon="-1.8352579325"><ele>-76.44</ele><time>2023-05-24T09:19:37Z</time></trkpt><trkpt lat="51.7588669807" lon="-1.8352829944"><ele>-76.44</ele><time>2023-05-24T09:19:57Z</time></trkpt><trkpt lat="51.7587267514" lon="-1.8351920508"><ele>-76.44</ele><time>2023-05-24T09:20:21Z</time></trkpt><trkpt lat="51.7586662341" lon="-1.8352253269"><ele>-76.44</ele><time>2023-05-24T09:20:47Z</time></trkpt><trkpt lat="51.7585551739" lon="-1.8349868618"><ele>-76.44</ele><time>2023-05-24T09:21:04Z</time></trkpt><trkpt lat="51.7585755419" lon="-1.8346748874"><ele>-76.44</ele><time>2023-05-24T09:21:28Z</time></trkpt><trkpt lat="51.7585594486" lon="-1.8345240131"><ele>-77.61</ele><time>2023-05-24T09:21:49Z</time></trkpt><trkpt lat="51.7585957423" lon="-1.8344385177"><ele>-77.68</ele><time>2023-05-24T09:22:09Z</time></trkpt><trkpt lat="51.7586302757" lon="-1.8343231827"><ele>-77.10</ele><time>2023-05-24T09:22:27Z</time></trkpt><trkpt lat="51.7585899588" lon="-1.8342291377"><ele>-77.12</ele><time>2023-05-24T09:22:48Z</time></trkpt><trkpt lat="51.7585878633" lon="-1.8339500204"><ele>-77.12</ele><time>2023-05-24T09:23:15Z</time></trkpt><trkpt lat="51.7587018572" lon="-1.8337444123"><ele>-77.12</ele><time>2023-05-24T09:23:37Z</time></trkpt><trkpt lat="51.7587440182" lon="-1.8336472660"><ele>-77.12</ele><time>2023-05-24T09:24:01Z</time></trkpt><trkpt lat="51.7587733548" lon="-1.8335884251"><ele>-77.12</ele><time>2023-05-24T09:24:25Z</time></trkpt><trkpt lat="51.7588036135" lon="-1.8335752655"><ele>-77.12</ele><time>2023-05-24T09:24:52Z</time></trkpt><trkpt lat="51.7587320320" lon="-1.8334742635"><ele>-77.12</ele><time>2023-05-24T09:25:13Z</time></trkpt><trkpt lat="51.7584773898" lon="-1.8333666399"><ele>-77.12</ele><time>2023-05-24T09:25:43Z</time></trkpt><trkpt lat="51.7583683413" lon="-1.8332822341"><ele>-77.12</ele><time>2023-05-24T09:26:01Z</time></trkpt><trkpt lat="51.7582339793" lon="-1.8332043663"><ele>-77.12</ele><time>2023-05-24T09:26:24Z</time></trkpt><trkpt lat="51.7581207398" lon="-1.8330676574"><ele>-77.12</ele><time>2023-05-24T09:26:47Z</time></trkpt><trkpt lat="51.7580877151" lon="-1.8329884484"><ele>-77.12</ele><time>2023-05-24T09:27:06Z</time></trkpt><trkpt lat="51.7580197379" lon="-1.8329320382"><ele>-77.12</ele><time>2023-05-24T09:27:29Z</time></trkpt><trkpt lat="51.7579251900" lon="-1.8328034598"><ele>-77.12</ele><time>2023-05-24T09:27:52Z</time></trkpt><trkpt lat="51.7578274570" lon="-1.8326165434"><ele>-77.12</ele><time>2023-05-24T09:28:15Z</time></trkpt><trkpt lat="51.7577591445" lon="-1.8325390946"><ele>-77.12</ele><time>2023-05-24T09:28:41Z</time></trkpt><trkpt lat="51.7576439772" lon="-1.8322848715"><ele>-76.93</ele><time>2023-05-24T09:29:04Z</time></trkpt><trkpt lat="51.7576292250" lon="-1.8322422076"><ele>-75.70</ele><time>2023-05-24T09:29:07Z</time></trkpt><trkpt lat="51.7574886605" lon="-1.8320236914"><ele>-75.98</ele><time>2023-05-24T09:29:32Z</time></trkpt><trkpt lat="51.7574018240" lon="-1.8318709731"><ele>-75.91</ele><time>2023-05-24T09:29:49Z</time></trkpt><trkpt lat="51.7573300749" lon="-1.8317015748"><ele>-75.75</ele><time>2023-05-24T09:30:06Z</time></trkpt><trkpt lat="51.7572570685" lon="-1.8314547278"><ele>-75.42</ele><time>2023-05-24T09:30:31Z</time></trkpt><trkpt lat="51.7572509497" lon="-1.8313182704"><ele>-75.38</ele><time>2023-05-24T09:30:43Z</time></trkpt><trkpt lat="51.7572651152" lon="-1.8311619479"><ele>-75.28</ele><time>2023-05-24T09:30:58Z</time></trkpt><trkpt lat="51.7573959567" lon="-1.8309750315"><ele>-75.21</ele><time>2023-05-24T09:31:20Z</time></trkpt><trkpt lat="51.7574646883" lon="-1.8307620473"><ele>-74.70</ele><time>2023-05-24T09:31:42Z</time></trkpt><trkpt lat="51.7575456575" lon="-1.8306587823"><ele>-74.70</ele><time>2023-05-24T09:32:06Z</time></trkpt><trkpt lat="51.7576515209" lon="-1.8306740373"><ele>-74.50</ele><time>2023-05-24T09:32:27Z</time></trkpt><trkpt lat="51.7577091884" lon="-1.8306507356"><ele>-74.07</ele><time>2023-05-24T09:32:49Z</time></trkpt><trkpt lat="51.7578044068" lon="-1.8306313735"><ele>-73.56</ele><time>2023-05-24T09:33:02Z</time></trkpt><trkpt lat="51.7579167243" lon="-1.8306325469"><ele>-72.76</ele><time>2023-05-24T09:33:18Z</time></trkpt><trkpt lat="51.7580513377" lon="-1.8305892125"><ele>-72.17</ele><time>2023-05-24T09:33:37Z</time></trkpt><trkpt lat="51.7581170518" lon="-1.8305894639"><ele>-71.08</ele><time>2023-05-24T09:33:55Z</time></trkpt><trkpt lat="51.7581785750" lon="-1.8306252547"><ele>-70.60</ele><time>2023-05-24T09:34:10Z</time></trkpt><trkpt lat="51.7583031300" lon="-1.8306259252"><ele>-69.86</ele><time>2023-05-24T09:34:29Z</time></trkpt><trkpt lat="51.7585094087" lon="-1.8306132685"><ele>-68.80</ele><time>2023-05-24T09:34:51Z</time></trkpt><trkpt lat="51.7586576845" lon="-1.8305892963"><ele>-67.75</ele><time>2023-05-24T09:35:18Z</time></trkpt><trkpt lat="51.7587020248" lon="-1.8305783998"><ele>-67.05</ele><time>2023-05-24T09:35:39Z</time></trkpt><trkpt lat="51.7586975824" lon="-1.8305654917"><ele>-66.77</ele><time>2023-05-24T09:36:02Z</time></trkpt><trkpt lat="51.7587144300" lon="-1.8305234984"><ele>-66.84</ele><time>2023-05-24T09:36:30Z</time></trkpt><trkpt lat="51.7587417550" lon="-1.8305613846"><ele>-66.59</ele><time>2023-05-24T09:36:53Z</time></trkpt><trkpt lat="51.7587599438" lon="-1.8305430282"><ele>-66.59</ele><time>2023-05-24T09:37:21Z</time></trkpt><trkpt lat="51.7587393243" lon="-1.8305618037"><ele>-66.59</ele><time>2023-05-24T09:37:50Z</time></trkpt><trkpt lat="51.7587231472" lon="-1.8305410165"><ele>-66.59</ele><time>2023-05-24T09:38:17Z</time></trkpt><trkpt lat="51.7587455269" lon="-1.8305796571"><ele>-66.59</ele><time>2023-05-24T09:38:39Z</time></trkpt><trkpt lat="51.7587456945" lon="-1.8305803277"><ele>-66.59</ele><time>2023-05-24T09:39:01Z</time></trkpt><trkpt lat="51.7587839160" lon="-1.8305574451"><ele>-66.59</ele><time>2023-05-24T09:39:28Z</time></trkpt><trkpt lat="51.7587601114" lon="-1.8305872008"><ele>-66.59</ele><time>2023-05-24T09:39:55Z</time></trkpt><trkpt lat="51.7587248236" lon="-1.8306001090"><ele>-66.59</ele><time>2023-05-24T09:40:23Z</time></trkpt><trkpt lat="51.7587430123" lon="-1.8306172080"><ele>-66.59</ele><time>2023-05-24T09:40:49Z</time></trkpt><trkpt lat="51.7587468680" lon="-1.8305882066"><ele>-66.59</ele><time>2023-05-24T09:41:16Z</time></trkpt><trkpt lat="51.7588388175" lon="-1.8304602988"><ele>-66.59</ele><time>2023-05-24T09:41:39Z</time></trkpt><trkpt lat="51.7589347903" lon="-1.8304367457"><ele>-66.59</ele><time>2023-05-24T09:41:58Z</time></trkpt><trkpt lat="51.7590732593" lon="-1.8302324787"><ele>-66.59</ele><time>2023-05-24T09:42:21Z</time></trkpt><trkpt lat="51.7591506243" lon="-1.8300327379"><ele>-66.59</ele><time>2023-05-24T09:42:36Z</time></trkpt><trkpt lat="51.7591768596" lon="-1.8299659342"><ele>-63.24</ele><time>2023-05-24T09:42:45Z</time></trkpt><trkpt lat="51.7591771949" lon="-1.8299588095"><ele>-63.23</ele><time>2023-05-24T09:42:46Z</time></trkpt><trkpt lat="51.7592069507" lon="-1.8298709672"><ele>-62.98</ele><time>2023-05-24T09:43:05Z</time></trkpt><trkpt lat="51.7591975629" lon="-1.8297601584"><ele>-63.29</ele><time>2023-05-24T09:43:27Z</time></trkpt><trkpt lat="51.7592056934" lon="-1.8295850605"><ele>-63.27</ele><time>2023-05-24T09:43:51Z</time></trkpt><trkpt lat="51.7591842357" lon="-1.8294347730"><ele>-63.27</ele><time>2023-05-24T09:44:12Z</time></trkpt><trkpt lat="51.7592194397" lon="-1.8292105570"><ele>-63.27</ele><time>2023-05-24T09:44:34Z</time></trkpt><trkpt lat="51.7592771072" lon="-1.8290772010"><ele>-63.27</ele><time>2023-05-24T09:45:05Z</time></trkpt><trkpt lat="51.7591772787" lon="-1.8289272487"><ele>-63.27</ele><time>2023-05-24T09:45:28Z</time></trkpt><trkpt lat="51.7590425815" lon="-1.8288113270"><ele>-66.58</ele><time>2023-05-24T09:45:48Z</time></trkpt><trkpt lat="51.7590402346" lon="-1.8288093153"><ele>-66.61</ele><time>2023-05-24T09:45:49Z</time></trkpt><trkpt lat="51.7589246482" lon="-1.8286789767"><ele>-68.30</ele><time>2023-05-24T09:46:20Z</time></trkpt><trkpt lat="51.7588565033" lon="-1.8285876978"><ele>-69.32</ele><time>2023-05-24T09:46:42Z</time></trkpt><trkpt lat="51.7587914597" lon="-1.8285534997"><ele>-70.47</ele><time>2023-05-24T09:47:03Z</time></trkpt><trkpt lat="51.7586385738" lon="-1.8284834269"><ele>-71.45</ele><time>2023-05-24T09:47:29Z</time></trkpt><trkpt lat="51.7585417628" lon="-1.8284012005"><ele>-73.09</ele><time>2023-05-24T09:47:58Z</time></trkpt><trkpt lat="51.7584427726" lon="-1.8283147831"><ele>-73.86</ele><time>2023-05-24T09:48:26Z</time></trkpt><trkpt lat="51.7582987715" lon="-1.8280855380"><ele>-74.48</ele><time>2023-05-24T09:48:49Z</time></trkpt><trkpt lat="51.7581630684" lon="-1.8279406987"><ele>-75.37</ele><time>2023-05-24T09:49:13Z</time></trkpt><trkpt lat="51.7580522597" lon="-1.8278332427"><ele>-75.72</ele><time>2023-05-24T09:49:37Z</time></trkpt><trkpt lat="51.7579859588" lon="-1.8276561331"><ele>-75.84</ele><time>2023-05-24T09:49:59Z</time></trkpt><trkpt lat="51.7578660976" lon="-1.8274894170"><ele>-76.15</ele><time>2023-05-24T09:50:21Z</time></trkpt><trkpt lat="51.7577806860" lon="-1.8273800332"><ele>-76.25</ele><time>2023-05-24T09:50:44Z</time></trkpt><trkpt lat="51.7576605733" lon="-1.8272400554"><ele>-76.56</ele><time>2023-05-24T09:51:07Z</time></trkpt><trkpt lat="51.7576032411" lon="-1.8272047676"><ele>-76.60</ele><time>2023-05-24T09:51:25Z</time></trkpt><trkpt lat="51.7575111240" lon="-1.8270372134"><ele>-76.56</ele><time>2023-05-24T09:51:50Z</time></trkpt><trkpt lat="51.7574783508" lon="-1.8270394765"><ele>-76.29</ele><time>2023-05-24T09:52:15Z</time></trkpt><trkpt lat="51.7575056758" lon="-1.8270712439"><ele>-76.29</ele><time>2023-05-24T09:52:41Z</time></trkpt><trkpt lat="51.7574330885" lon="-1.8268984091"><ele>-76.29</ele><time>2023-05-24T09:53:00Z</time></trkpt><trkpt lat="51.7573903408" lon="-1.8268541526"><ele>-76.29</ele><time>2023-05-24T09:53:27Z</time></trkpt><trkpt lat="51.7573039234" lon="-1.8268642109"><ele>-76.29</ele><time>2023-05-24T09:53:47Z</time></trkpt><trkpt lat="51.7572774366" lon="-1.8269099761"><ele>-76.29</ele><time>2023-05-24T09:54:07Z</time></trkpt><trkpt lat="51.7572779395" lon="-1.8268395681"><ele>-76.29</ele><time>2023-05-24T09:54:24Z</time></trkpt><trkpt lat="51.7572511174" lon="-1.8267212994"><ele>-76.05</ele><time>2023-05-24T09:54:51Z</time></trkpt><trkpt lat="51.7570894305" lon="-1.8267812300"><ele>-75.32</ele><time>2023-05-24T09:55:13Z</time></trkpt><trkpt lat="51.7570116464" lon="-1.8270106427"><ele>-74.68</ele><time>2023-05-24T09:55:35Z</time></trkpt><trkpt lat="51.7570508737" lon="-1.8270631973"><ele>-75.03</ele><time>2023-05-24T09:55:59Z</time></trkpt><trkpt lat="51.7568890192" lon="-1.8269604351"><ele>-74.31</ele><time>2023-05-24T09:56:18Z</time></trkpt><trkpt lat="51.7567972373" lon="-1.8269060366"><ele>-72.48</ele><time>2023-05-24T09:56:31Z</time></trkpt><trkpt lat="51.7566670664" lon="-1.8268431723"><ele>-70.34</ele><time>2023-05-24T09:56:48Z</time></trkpt><trkpt lat="51.7566158529" lon="-1.8268054537"><ele>-68.86</ele><time>2023-05-24T09:57:08Z</time></trkpt><trkpt lat="51.7565307766" lon="-1.8268009275"><ele>-68.83</ele><time>2023-05-24T09:57:31Z</time></trkpt><trkpt lat="51.7564568482" lon="-1.8268365506"><ele>-68.82</ele><time>2023-05-24T09:57:51Z</time></trkpt><trkpt lat="51.7561706901" lon="-1.8267992511"><ele>-68.86</ele><time>2023-05-24T09:58:22Z</time></trkpt><trkpt lat="51.7560303770" lon="-1.8268320244"><ele>-68.86</ele><time>2023-05-24T09:58:42Z</time></trkpt><trkpt lat="51.7559150420" lon="-1.8268634565"><ele>-72.46</ele><time>2023-05-24T09:58:59Z</time></trkpt><trkpt lat="51.7559123598" lon="-1.8268635403"><ele>-72.47</ele><time>2023-05-24T09:59:00Z</time></trkpt><trkpt lat="51.7557816859" lon="-1.8269114010"><ele>-73.30</ele><time>2023-05-24T09:59:21Z</time></trkpt><trkpt lat="51.7556369305" lon="-1.8269499578"><ele>-74.14</ele><time>2023-05-24T09:59:40Z</time></trkpt><trkpt lat="51.7554568872" lon="-1.8270078767"><ele>-74.94</ele><time>2023-05-24T10:00:05Z</time></trkpt><trkpt lat="51.7552151531" lon="-1.8270647898"><ele>-76.00</ele><time>2023-05-24T10:00:35Z</time></trkpt><trkpt lat="51.7550850660" lon="-1.8271174282"><ele>-76.30</ele><time>2023-05-24T10:00:54Z</time></trkpt><trkpt lat="51.7549461778" lon="-1.8271561526"><ele>-76.73</ele><time>2023-05-24T10:01:14Z</time></trkpt><trkpt lat="51.7549459264" lon="-1.8271239661"><ele>-76.72</ele><time>2023-05-24T10:01:35Z</time></trkpt><trkpt lat="51.7547915317" lon="-1.8271948770"><ele>-76.42</ele><time>2023-05-24T10:01:55Z</time></trkpt><trkpt lat="51.7546560802" lon="-1.8272540532"><ele>-76.21</ele><time>2023-05-24T10:02:12Z</time></trkpt><trkpt lat="51.7544783838" lon="-1.8272970524"><ele>-76.21</ele><time>2023-05-24T10:02:34Z</time></trkpt><trkpt lat="51.7543600313" lon="-1.8273665383"><ele>-76.21</ele><time>2023-05-24T10:02:53Z</time></trkpt><trkpt lat="51.7542098276" lon="-1.8274449091"><ele>-76.21</ele><time>2023-05-24T10:03:15Z</time></trkpt><trkpt lat="51.7540830933" lon="-1.8275408819"><ele>-76.22</ele><time>2023-05-24T10:03:39Z</time></trkpt><trkpt lat="51.7539170478" lon="-1.8276265450"><ele>-76.22</ele><time>2023-05-24T10:04:03Z</time></trkpt><trkpt lat="51.7537033930" lon="-1.8277134653"><ele>-76.22</ele><time>2023-05-24T10:04:28Z</time></trkpt><trkpt lat="51.7536101025" lon="-1.8277372699"><ele>-76.22</ele><time>2023-05-24T10:04:48Z</time></trkpt><trkpt lat="51.7535459809" lon="-1.8277863041"><ele>-76.22</ele><time>2023-05-24T10:05:06Z</time></trkpt><trkpt lat="51.7534858827" lon="-1.8278378528"><ele>-76.22</ele><time>2023-05-24T10:05:30Z</time></trkpt><trkpt lat="51.7534965277" lon="-1.8278585561"><ele>-76.22</ele><time>2023-05-24T10:05:54Z</time></trkpt><trkpt lat="51.7535037361" lon="-1.8278546166"><ele>-76.22</ele><time>2023-05-24T10:06:19Z</time></trkpt><trkpt lat="51.7534967791" lon="-1.8278940115"><ele>-76.22</ele><time>2023-05-24T10:06:45Z</time></trkpt><trkpt lat="51.7534964439" lon="-1.8278712127"><ele>-76.22</ele><time>2023-05-24T10:07:10Z</time></trkpt><trkpt lat="51.7535023950" lon="-1.8278873898"><ele>-76.22</ele><time>2023-05-24T10:07:36Z</time></trkpt><trkpt lat="51.7534935102" lon="-1.8278644234"><ele>-76.22</ele><time>2023-05-24T10:08:01Z</time></trkpt><trkpt lat="51.7535035685" lon="-1.8278551195"><ele>-76.22</ele><time>2023-05-24T10:08:28Z</time></trkpt><trkpt lat="51.7535090167" lon="-1.8278562929"><ele>-76.22</ele><time>2023-05-24T10:08:54Z</time></trkpt><trkpt lat="51.7535152193" lon="-1.8278565444"><ele>-76.22</ele><time>2023-05-24T10:09:20Z</time></trkpt><trkpt lat="51.7534891516" lon="-1.8278436363"><ele>-76.22</ele><time>2023-05-24T10:09:48Z</time></trkpt><trkpt lat="51.7534789257" lon="-1.8278563768"><ele>-76.22</ele><time>2023-05-24T10:10:15Z</time></trkpt><trkpt lat="51.7534220964" lon="-1.8278437201"><ele>-76.22</ele><time>2023-05-24T10:10:35Z</time></trkpt><trkpt lat="51.7534353398" lon="-1.8278323207"><ele>-76.22</ele><time>2023-05-24T10:10:58Z</time></trkpt><trkpt lat="51.7534248624" lon="-1.8278690334"><ele>-76.22</ele><time>2023-05-24T10:11:22Z</time></trkpt><trkpt lat="51.7534488346" lon="-1.8278733082"><ele>-76.22</ele><time>2023-05-24T10:11:48Z</time></trkpt><trkpt lat="51.7534681968" lon="-1.8278601486"><ele>-76.22</ele><time>2023-05-24T10:12:18Z</time></trkpt><trkpt lat="51.7534674425" lon="-1.8278448936"><ele>-76.22</ele><time>2023-05-24T10:12:42Z</time></trkpt><trkpt lat="51.7534830328" lon="-1.8278426304"><ele>-76.22</ele><time>2023-05-24T10:13:07Z</time></trkpt><trkpt lat="51.7534661014" lon="-1.8278259505"><ele>-76.22</ele><time>2023-05-24T10:13:31Z</time></trkpt><trkpt lat="51.7534773331" lon="-1.8278252799"><ele>-76.22</ele><time>2023-05-24T10:14:01Z</time></trkpt><trkpt lat="51.7534755729" lon="-1.8278227653"><ele>-76.22</ele><time>2023-05-24T10:14:27Z</time></trkpt><trkpt lat="51.7534645088" lon="-1.8277917523"><ele>-76.22</ele><time>2023-05-24T10:14:58Z</time></trkpt><trkpt lat="51.7534645088" lon="-1.8278219271"><ele>-76.22</ele><time>2023-05-24T10:15:24Z</time></trkpt><trkpt lat="51.7534597311" lon="-1.8278103601"><ele>-76.22</ele><time>2023-05-24T10:15:49Z</time></trkpt><trkpt lat="51.7534906603" lon="-1.8278210051"><ele>-76.22</ele><time>2023-05-24T10:16:14Z</time></trkpt><trkpt lat="51.7534834519" lon="-1.8278140482"><ele>-76.22</ele><time>2023-05-24T10:16:40Z</time></trkpt><trkpt lat="51.7534739804" lon="-1.8277857173"><ele>-76.22</ele><time>2023-05-24T10:17:05Z</time></trkpt><trkpt lat="51.7534543667" lon="-1.8277948536"><ele>-76.22</ele><time>2023-05-24T10:17:30Z</time></trkpt><trkpt lat="51.7534755729" lon="-1.8278190773"><ele>-76.22</ele><time>2023-05-24T10:17:53Z</time></trkpt><trkpt lat="51.7535021435" lon="-1.8278406188"><ele>-76.22</ele><time>2023-05-24T10:18:15Z</time></trkpt><trkpt lat="51.7534636706" lon="-1.8277987931"><ele>-76.22</ele><time>2023-05-24T10:18:37Z</time></trkpt><trkpt lat="51.7533224355" lon="-1.8278078455"><ele>-75.55</ele><time>2023-05-24T10:18:58Z</time></trkpt><trkpt lat="51.7531311605" lon="-1.8279005494"><ele>-75.41</ele><time>2023-05-24T10:19:28Z</time></trkpt><trkpt lat="51.7529475968" lon="-1.8279749807"><ele>-75.31</ele><time>2023-05-24T10:19:57Z</time></trkpt><trkpt lat="51.7527916934" lon="-1.8279999588"><ele>-74.34</ele><time>2023-05-24T10:20:28Z</time></trkpt><trkpt lat="51.7526833992" lon="-1.8280199077"><ele>-74.10</ele><time>2023-05-24T10:20:50Z</time></trkpt><trkpt lat="51.7525648791" lon="-1.8280874658"><ele>-73.03</ele><time>2023-05-24T10:21:14Z</time></trkpt><trkpt lat="51.7524514720" lon="-1.8281439599"><ele>-71.07</ele><time>2023-05-24T10:21:38Z</time></trkpt><trkpt lat="51.7523183674" lon="-1.8281954248"><ele>-69.30</ele><time>2023-05-24T10:22:00Z</time></trkpt><trkpt lat="51.7522454448" lon="-1.8281804211"><ele>-67.75</ele><time>2023-05-24T10:22:18Z</time></trkpt><trkpt lat="51.7521522380" lon="-1.8281695247"><ele>-65.93</ele><time>2023-05-24T10:22:41Z</time></trkpt><trkpt lat="51.7520923074" lon="-1.8281843606"><ele>-63.88</ele><time>2023-05-24T10:23:04Z</time></trkpt><trkpt lat="51.7520345561" lon="-1.8282034714"><ele>-63.31</ele><time>2023-05-24T10:23:29Z</time></trkpt><trkpt lat="51.7520211451" lon="-1.8281797506"><ele>-60.25</ele><time>2023-05-24T10:24:22Z</time></trkpt><trkpt lat="51.7518402636" lon="-1.8281630706"><ele>-57.43</ele><time>2023-05-24T10:24:58Z</time></trkpt><trkpt lat="51.7517482303" lon="-1.8283324689"><ele>-55.64</ele><time>2023-05-24T10:25:39Z</time></trkpt><trkpt lat="51.7517186422" lon="-1.8285997678"><ele>-54.22</ele><time>2023-05-24T10:25:57Z</time></trkpt><trkpt lat="51.7516556941" lon="-1.8287182879"><ele>-53.30</ele><time>2023-05-24T10:26:12Z</time></trkpt><trkpt lat="51.7516566999" lon="-1.8288523983"><ele>-52.15</ele><time>2023-05-24T10:26:31Z</time></trkpt><trkpt lat="51.7516726255" lon="-1.8290223833"><ele>-51.25</ele><time>2023-05-24T10:26:53Z</time></trkpt><trkpt lat="51.7517533433" lon="-1.8292278238"><ele>-50.91</ele><time>2023-05-24T10:27:13Z</time></trkpt><trkpt lat="51.7518221587" lon="-1.8293716572"><ele>-50.88</ele><time>2023-05-24T10:27:36Z</time></trkpt><trkpt lat="51.7519607116" lon="-1.8295880780"><ele>-50.85</ele><time>2023-05-24T10:27:50Z</time></trkpt><trkpt lat="51.7519928981" lon="-1.8296668679"><ele>-50.60</ele><time>2023-05-24T10:28:12Z</time></trkpt><trkpt lat="51.7520870268" lon="-1.8297972064"><ele>-50.60</ele><time>2023-05-24T10:28:28Z</time></trkpt><trkpt lat="51.7521560937" lon="-1.8299137149"><ele>-50.73</ele><time>2023-05-24T10:28:43Z</time></trkpt><trkpt lat="51.7521793116" lon="-1.8299782556"><ele>-50.97</ele><time>2023-05-24T10:29:00Z</time></trkpt><trkpt lat="51.7521723546" lon="-1.8301241007"><ele>-50.77</ele><time>2023-05-24T10:29:22Z</time></trkpt><trkpt lat="51.7522348836" lon="-1.8302598875"><ele>-50.77</ele><time>2023-05-24T10:29:38Z</time></trkpt><trkpt lat="51.7522543296" lon="-1.8303770665"><ele>-50.77</ele><time>2023-05-24T10:29:59Z</time></trkpt><trkpt lat="51.7523364723" lon="-1.8304426130"><ele>-51.06</ele><time>2023-05-24T10:30:26Z</time></trkpt><trkpt lat="51.7524279188" lon="-1.8304349855"><ele>-51.05</ele><time>2023-05-24T10:30:46Z</time></trkpt><trkpt lat="51.7525198683" lon="-1.8304764759"><ele>-50.79</ele><time>2023-05-24T10:31:03Z</time></trkpt><trkpt lat="51.7525652144" lon="-1.8305823393"><ele>-50.92</ele><time>2023-05-24T10:31:19Z</time></trkpt><trkpt lat="51.7525395658" lon="-1.8307437748"><ele>-50.86</ele><time>2023-05-24T10:31:43Z</time></trkpt><trkpt lat="51.7524788808" lon="-1.8310351297"><ele>-50.86</ele><time>2023-05-24T10:32:03Z</time></trkpt><trkpt lat="51.7524644639" lon="-1.8313574977"><ele>-50.86</ele><time>2023-05-24T10:32:27Z</time></trkpt><trkpt lat="51.7525177728" lon="-1.8315563165"><ele>-50.86</ele><time>2023-05-24T10:32:47Z</time></trkpt><trkpt lat="51.7526073754" lon="-1.8316734117"><ele>-50.86</ele><time>2023-05-24T10:33:12Z</time></trkpt><trkpt lat="51.7526963912" lon="-1.8318143953"><ele>-50.86</ele><time>2023-05-24T10:33:32Z</time></trkpt><trkpt lat="51.7528754286" lon="-1.8319734838"><ele>-50.86</ele><time>2023-05-24T10:33:55Z</time></trkpt><trkpt lat="51.7529921886" lon="-1.8320579734"><ele>-50.86</ele><time>2023-05-24T10:34:18Z</time></trkpt><trkpt lat="51.7529910151" lon="-1.8321510125"><ele>-50.86</ele><time>2023-05-24T10:34:39Z</time></trkpt><trkpt lat="51.7530615069" lon="-1.8324220832"><ele>-50.86</ele><time>2023-05-24T10:35:02Z</time></trkpt><trkpt lat="51.7531879898" lon="-1.8325621448"><ele>-50.86</ele><time>2023-05-24T10:35:25Z</time></trkpt><trkpt lat="51.7532892432" lon="-1.8327373266"><ele>-50.86</ele><time>2023-05-24T10:35:46Z</time></trkpt><trkpt lat="51.7533426359" lon="-1.8328957446"><ele>-50.86</ele><time>2023-05-24T10:36:07Z</time></trkpt><trkpt lat="51.7533718888" lon="-1.8330415897"><ele>-50.86</ele><time>2023-05-24T10:36:28Z</time></trkpt><trkpt lat="51.7533583101" lon="-1.8330469541"><ele>-48.71</ele><time>2023-05-24T10:36:31Z</time></trkpt><trkpt lat="51.7534236051" lon="-1.8331589364"><ele>-48.42</ele><time>2023-05-24T10:36:48Z</time></trkpt><trkpt lat="51.7535444722" lon="-1.8334356230"><ele>-47.65</ele><time>2023-05-24T10:37:09Z</time></trkpt><trkpt lat="51.7536667641" lon="-1.8336982280"><ele>-47.30</ele><time>2023-05-24T10:37:37Z</time></trkpt><trkpt lat="51.7537603900" lon="-1.8339005671"><ele>-46.81</ele><time>2023-05-24T10:37:59Z</time></trkpt><trkpt lat="51.7538860347" lon="-1.8341212627"><ele>-46.11</ele><time>2023-05-24T10:38:21Z</time></trkpt><trkpt lat="51.7539828457" lon="-1.8343284633"><ele>-45.37</ele><time>2023-05-24T10:38:45Z</time></trkpt><trkpt lat="51.7539761402" lon="-1.8343412876"><ele>-45.23</ele><time>2023-05-24T10:39:10Z</time></trkpt><trkpt lat="51.7540047225" lon="-1.8343163095"><ele>-45.06</ele><time>2023-05-24T10:39:30Z</time></trkpt><trkpt lat="51.7540350650" lon="-1.8342971150"><ele>-45.18</ele><time>2023-05-24T10:39:50Z</time></trkpt><trkpt lat="51.7540685087" lon="-1.8343763240"><ele>-45.18</ele><time>2023-05-24T10:40:12Z</time></trkpt><trkpt lat="51.7541233264" lon="-1.8343591411"><ele>-45.18</ele><time>2023-05-24T10:40:42Z</time></trkpt><trkpt lat="51.7541526631" lon="-1.8344051577"><ele>-45.18</ele><time>2023-05-24T10:41:02Z</time></trkpt><trkpt lat="51.7541712709" lon="-1.8348108418"><ele>-45.18</ele><time>2023-05-24T10:41:23Z</time></trkpt><trkpt lat="51.7542013619" lon="-1.8349178787"><ele>-41.91</ele><time>2023-05-24T10:41:35Z</time></trkpt><trkpt lat="51.7542122584" lon="-1.8349348940"><ele>-42.07</ele><time>2023-05-24T10:41:36Z</time></trkpt><trkpt lat="51.7543063033" lon="-1.8352261651"><ele>-41.29</ele><time>2023-05-24T10:41:59Z</time></trkpt><trkpt lat="51.7543974984" lon="-1.8353229761"><ele>-40.68</ele><time>2023-05-24T10:42:26Z</time></trkpt><trkpt lat="51.7544031981" lon="-1.8354249839"><ele>-40.30</ele><time>2023-05-24T10:42:46Z</time></trkpt><trkpt lat="51.7543764599" lon="-1.8354291748"><ele>-40.42</ele><time>2023-05-24T10:43:15Z</time></trkpt><trkpt lat="51.7544311099" lon="-1.8355316017"><ele>-40.46</ele><time>2023-05-24T10:43:41Z</time></trkpt><trkpt lat="51.7544137593" lon="-1.8354794662"><ele>-40.46</ele><time>2023-05-24T10:44:12Z</time></trkpt><trkpt lat="51.7544415873" lon="-1.8356673047"><ele>-40.07</ele><time>2023-05-24T10:44:32Z</time></trkpt><trkpt lat="51.7544641346" lon="-1.8357347790"><ele>-40.32</ele><time>2023-05-24T10:45:00Z</time></trkpt><trkpt lat="51.7545666452" lon="-1.8359135650"><ele>-40.03</ele><time>2023-05-24T10:45:19Z</time></trkpt><trkpt lat="51.7546009272" lon="-1.8359953724"><ele>-39.84</ele><time>2023-05-24T10:45:25Z</time></trkpt><trkpt lat="51.7546929605" lon="-1.8363112025"><ele>-39.45</ele><time>2023-05-24T10:45:44Z</time></trkpt><trkpt lat="51.7547103949" lon="-1.8364124559"><ele>-38.87</ele><time>2023-05-24T10:46:05Z</time></trkpt><trkpt lat="51.7547516339" lon="-1.8364284653"><ele>-39.07</ele><time>2023-05-24T10:46:24Z</time></trkpt><trkpt lat="51.7547670566" lon="-1.8365225103"><ele>-39.12</ele><time>2023-05-24T10:46:49Z</time></trkpt><trkpt lat="51.7549032625" lon="-1.8368560262"><ele>-39.22</ele><time>2023-05-24T10:47:10Z</time></trkpt><trkpt lat="51.7549755145" lon="-1.8370943237"><ele>-39.52</ele><time>2023-05-24T10:47:32Z</time></trkpt><trkpt lat="51.7550442461" lon="-1.8373002671"><ele>-39.40</ele><time>2023-05-24T10:47:48Z</time></trkpt><trkpt lat="51.7551093735" lon="-1.8374436814"><ele>-39.40</ele><time>2023-05-24T10:48:05Z</time></trkpt><trkpt lat="51.7551854812" lon="-1.8375795521"><ele>-39.40</ele><time>2023-05-24T10:48:24Z</time></trkpt><trkpt lat="51.7552877404" lon="-1.8377321865"><ele>-39.40</ele><time>2023-05-24T10:48:47Z</time></trkpt><trkpt lat="51.7553248722" lon="-1.8378400616"><ele>-39.40</ele><time>2023-05-24T10:48:59Z</time></trkpt><trkpt lat="51.7553139757" lon="-1.8378653750"><ele>-40.48</ele><time>2023-05-24T10:49:14Z</time></trkpt><trkpt lat="51.7553824559" lon="-1.8379342742"><ele>-40.74</ele><time>2023-05-24T10:49:34Z</time></trkpt><trkpt lat="51.7554946896" lon="-1.8380614277"><ele>-41.12</ele><time>2023-05-24T10:49:55Z</time></trkpt><trkpt lat="51.7556206696" lon="-1.8381776847"><ele>-41.59</ele><time>2023-05-24T10:50:17Z</time></trkpt><trkpt lat="51.7557804286" lon="-1.8383215182"><ele>-42.28</ele><time>2023-05-24T10:50:40Z</time></trkpt><trkpt lat="51.7558738869" lon="-1.8384290580"><ele>-42.58</ele><time>2023-05-24T10:50:57Z</time></trkpt><trkpt lat="51.7559788283" lon="-1.8385431357"><ele>-42.88</ele><time>2023-05-24T10:51:14Z</time></trkpt><trkpt lat="51.7561240867" lon="-1.8386818562"><ele>-43.78</ele><time>2023-05-24T10:51:36Z</time></trkpt><trkpt lat="51.7562249210" lon="-1.8387898989"><ele>-44.63</ele><time>2023-05-24T10:51:55Z</time></trkpt><trkpt lat="51.7563597858" lon="-1.8389111012"><ele>-45.32</ele><time>2023-05-24T10:52:22Z</time></trkpt><trkpt lat="51.7564664036" lon="-1.8390225805"><ele>-46.55</ele><time>2023-05-24T10:52:48Z</time></trkpt><trkpt lat="51.7566202953" lon="-1.8392293621"><ele>-47.67</ele><time>2023-05-24T10:53:12Z</time></trkpt><trkpt lat="51.7566706706" lon="-1.8393193837"><ele>-48.22</ele><time>2023-05-24T10:53:23Z</time></trkpt><trkpt lat="51.7567796353" lon="-1.8395065516"><ele>-49.36</ele><time>2023-05-24T10:53:48Z</time></trkpt><trkpt lat="51.7569033522" lon="-1.8396559171"><ele>-49.92</ele><time>2023-05-24T10:54:04Z</time></trkpt><trkpt lat="51.7569983192" lon="-1.8399050273"><ele>-50.91</ele><time>2023-05-24T10:54:26Z</time></trkpt><trkpt lat="51.7570153344" lon="-1.8399239704"><ele>-50.91</ele><time>2023-05-24T10:54:41Z</time></trkpt><trkpt lat="51.7570579145" lon="-1.8399968091"><ele>-51.21</ele><time>2023-05-24T10:54:52Z</time></trkpt><trkpt lat="51.7571892589" lon="-1.8402475119"><ele>-52.60</ele><time>2023-05-24T10:55:11Z</time></trkpt><trkpt lat="51.7572802864" lon="-1.8404514436"><ele>-53.09</ele><time>2023-05-24T10:55:28Z</time></trkpt><trkpt lat="51.7573905922" lon="-1.8406307325"><ele>-54.00</ele><time>2023-05-24T10:55:48Z</time></trkpt><trkpt lat="51.7575135548" lon="-1.8408078421"><ele>-54.96</ele><time>2023-05-24T10:56:08Z</time></trkpt><trkpt lat="51.7576105334" lon="-1.8409822695"><ele>-55.14</ele><time>2023-05-24T10:56:27Z</time></trkpt><trkpt lat="51.7577062547" lon="-1.8411463033"><ele>-55.17</ele><time>2023-05-24T10:56:47Z</time></trkpt><trkpt lat="51.7578242719" lon="-1.8413208146"><ele>-55.31</ele><time>2023-05-24T10:57:05Z</time></trkpt><trkpt lat="51.7578499205" lon="-1.8413709383"><ele>-55.06</ele><time>2023-05-24T10:57:23Z</time></trkpt><trkpt lat="51.7578505911" lon="-1.8413706031"><ele>-55.04</ele><time>2023-05-24T10:57:24Z</time></trkpt><trkpt lat="51.7578823585" lon="-1.8413603771"><ele>-55.06</ele><time>2023-05-24T10:57:47Z</time></trkpt><trkpt lat="51.7579500005" lon="-1.8413778115"><ele>-55.42</ele><time>2023-05-24T10:58:08Z</time></trkpt><trkpt lat="51.7580450512" lon="-1.8414910510"><ele>-54.66</ele><time>2023-05-24T10:58:25Z</time></trkpt><trkpt lat="51.7581430357" lon="-1.8415801506"><ele>-54.18</ele><time>2023-05-24T10:58:43Z</time></trkpt><trkpt lat="51.7581707798" lon="-1.8415576033"><ele>-54.17</ele><time>2023-05-24T10:59:09Z</time></trkpt><trkpt lat="51.7582241725" lon="-1.8415168673"><ele>-53.84</ele><time>2023-05-24T10:59:27Z</time></trkpt><trkpt lat="51.7583970074" lon="-1.8416870199"><ele>-52.89</ele><time>2023-05-24T10:59:47Z</time></trkpt><trkpt lat="51.7585777212" lon="-1.8417995051"><ele>-51.73</ele><time>2023-05-24T11:00:06Z</time></trkpt><trkpt lat="51.7586426809" lon="-1.8417244032"><ele>-51.50</ele><time>2023-05-24T11:00:23Z</time></trkpt><trkpt lat="51.7586520687" lon="-1.8415648956"><ele>-52.08</ele><time>2023-05-24T11:00:44Z</time></trkpt><trkpt lat="51.7586818244" lon="-1.8414048012"><ele>-52.91</ele><time>2023-05-24T11:01:04Z</time></trkpt><trkpt lat="51.7587166093" lon="-1.8410713691"><ele>-53.78</ele><time>2023-05-24T11:01:24Z</time></trkpt><trkpt lat="51.7587090656" lon="-1.8410549406"><ele>-54.09</ele><time>2023-05-24T11:01:45Z</time></trkpt><trkpt lat="51.7587012704" lon="-1.8409321457"><ele>-53.97</ele><time>2023-05-24T11:02:05Z</time></trkpt><trkpt lat="51.7586766277" lon="-1.8406998832"><ele>-54.69</ele><time>2023-05-24T11:02:26Z</time></trkpt><trkpt lat="51.7586653121" lon="-1.8405006453"><ele>-55.08</ele><time>2023-05-24T11:02:45Z</time></trkpt><trkpt lat="51.7586860992" lon="-1.8402787764"><ele>-55.52</ele><time>2023-05-24T11:03:04Z</time></trkpt><trkpt lat="51.7587484606" lon="-1.8400721624"><ele>-56.58</ele><time>2023-05-24T11:03:27Z</time></trkpt><trkpt lat="51.7588002607" lon="-1.8399279099"><ele>-56.50</ele><time>2023-05-24T11:03:47Z</time></trkpt><trkpt lat="51.7588036973" lon="-1.8398422468"><ele>-56.18</ele><time>2023-05-24T11:04:10Z</time></trkpt><trkpt lat="51.7588638794" lon="-1.8396040332"><ele>-57.65</ele><time>2023-05-24T11:04:30Z</time></trkpt><trkpt lat="51.7588985804" lon="-1.8393938150"><ele>-59.38</ele><time>2023-05-24T11:04:49Z</time></trkpt><trkpt lat="51.7588979099" lon="-1.8393342197"><ele>-60.55</ele><time>2023-05-24T11:05:13Z</time></trkpt><trkpt lat="51.7588417511" lon="-1.8393271789"><ele>-60.78</ele><time>2023-05-24T11:05:39Z</time></trkpt><trkpt lat="51.7587457784" lon="-1.8393304478"><ele>-60.06</ele><time>2023-05-24T11:05:59Z</time></trkpt><trkpt lat="51.7586422618" lon="-1.8392647337"><ele>-59.10</ele><time>2023-05-24T11:06:15Z</time></trkpt><trkpt lat="51.7586300243" lon="-1.8392550107"><ele>-59.91</ele><time>2023-05-24T11:06:24Z</time></trkpt></trkseg></trk></gpx>